createdAt,value
2023-03-26T00:01:24.593Z,6.27
2023-03-26T00:03:53.933Z,6.00
2023-03-26T00:06:23.097Z,6.63
2023-03-26T00:08:52.615Z,6.67
2023-03-26T00:11:21.930Z,6.40
2023-03-26T00:13:49.251Z,6.90
2023-03-26T00:16:19.777Z,6.93
2023-03-26T00:18:48.964Z,6.07
2023-03-26T00:21:20.911Z,5.97
2023-03-26T00:23:49.142Z,6.40
2023-03-26T00:26:17.624Z,6.00
2023-03-26T00:28:44.699Z,6.70
2023-03-26T00:31:13.990Z,6.37
2023-03-26T00:33:42.017Z,6.67
2023-03-26T00:36:16.661Z,5.93
2023-03-26T00:38:46.812Z,6.20
2023-03-26T00:41:22.718Z,6.40
2023-03-26T00:43:53.381Z,6.00
2023-03-26T00:46:20.391Z,6.07
2023-03-26T00:48:48.634Z,6.30
2023-03-26T00:51:16.941Z,6.90
2023-03-26T00:53:45.908Z,6.30
2023-03-26T00:56:13.842Z,5.47
2023-03-26T00:58:41.494Z,6.70
2023-03-26T01:01:13.920Z,4.97
2023-03-26T01:03:53.229Z,5.13
2023-03-26T01:06:36.700Z,5.60
2023-03-26T01:09:19.036Z,5.63
2023-03-26T01:11:46.857Z,5.23
2023-03-26T01:14:18.390Z,4.70
2023-03-26T01:16:57.176Z,5.37
2023-03-26T01:19:52.156Z,4.70
2023-03-26T01:22:22.327Z,5.00
2023-03-26T01:24:53.718Z,4.63
2023-03-26T01:27:29.565Z,4.57
2023-03-26T01:30:03.988Z,4.90
2023-03-26T01:32:31.084Z,4.57
2023-03-26T01:35:13.199Z,4.37
2023-03-26T01:38:11.037Z,4.60
2023-03-26T01:40:49.602Z,5.17
2023-03-26T01:43:39.928Z,5.40
2023-03-26T01:46:09.913Z,4.93
2023-03-26T01:48:45.612Z,4.97
2023-03-26T01:51:14.563Z,6.07
2023-03-26T01:53:46.031Z,5.50
2023-03-26T01:56:26.693Z,5.50
2023-03-26T01:59:00.864Z,5.13
2023-03-26T02:01:44.690Z,5.20
2023-03-26T02:04:14.448Z,4.80
2023-03-26T02:06:44.718Z,5.23
2023-03-26T02:09:24.828Z,5.20
2023-03-26T02:11:51.871Z,4.93
2023-03-26T02:14:19.794Z,5.60
2023-03-26T02:16:47.014Z,5.63
2023-03-26T02:19:21.643Z,5.50
2023-03-26T02:21:51.672Z,5.23
2023-03-26T02:24:20.442Z,5.30
2023-03-26T02:26:47.520Z,5.27
2023-03-26T02:29:19.344Z,5.43
2023-03-26T02:31:48.422Z,4.63
2023-03-26T02:34:16.573Z,5.00
2023-03-26T02:36:43.504Z,5.07
2023-03-26T02:39:10.993Z,4.60
2023-03-26T02:41:38.871Z,4.70
2023-03-26T02:44:06.265Z,5.00
2023-03-26T02:46:34.067Z,4.87
2023-03-26T02:49:01.012Z,4.37
2023-03-26T02:51:28.829Z,4.33
2023-03-26T02:53:55.901Z,4.97
2023-03-26T02:56:22.751Z,4.90
2023-03-26T02:58:49.520Z,4.47
2023-03-26T03:01:18.474Z,4.23
2023-03-26T03:03:47.485Z,4.97
2023-03-26T03:06:18.857Z,4.70
2023-03-26T03:08:46.512Z,4.13
2023-03-26T03:11:16.718Z,3.80
2023-03-26T03:13:45.234Z,3.80
2023-03-26T03:16:12.258Z,4.50
2023-03-26T03:18:39.515Z,3.90
2023-03-26T03:21:06.804Z,4.33
2023-03-26T03:23:33.734Z,4.43
2023-03-26T03:26:00.480Z,4.23
2023-03-26T03:28:27.408Z,4.13
2023-03-26T03:30:54.194Z,4.17
2023-03-26T03:33:21.461Z,4.57
2023-03-26T03:35:50.132Z,3.40
2023-03-26T03:38:17.668Z,4.80
2023-03-26T03:40:45.838Z,4.10
2023-03-26T03:43:12.677Z,4.27
2023-03-26T03:45:40.665Z,4.50
2023-03-26T03:48:07.633Z,4.73
2023-03-26T03:50:35.786Z,3.77
2023-03-26T03:53:03.640Z,4.50
2023-03-26T03:55:30.599Z,4.27
2023-03-26T03:58:00.041Z,3.90
2023-03-26T04:00:27.082Z,3.40
2023-03-26T04:02:54.593Z,3.97
2023-03-26T04:05:21.721Z,4.33
2023-03-26T04:07:48.568Z,4.20
2023-03-26T04:10:16.439Z,4.43
2023-03-26T04:12:44.373Z,3.90
2023-03-26T04:15:11.263Z,3.67
2023-03-26T04:17:42.583Z,3.87
2023-03-26T04:20:15.791Z,3.50
2023-03-26T04:22:44.220Z,4.03
2023-03-26T04:25:13.327Z,4.03
2023-03-26T04:27:42.703Z,3.63
2023-03-26T04:30:15.718Z,4.13
2023-03-26T04:32:43.349Z,3.93
2023-03-26T04:35:14.460Z,3.97
2023-03-26T04:37:44.332Z,3.70
2023-03-26T04:40:21.952Z,4.33
2023-03-26T04:42:48.926Z,3.93
2023-03-26T04:45:22.454Z,3.87
2023-03-26T04:47:51.231Z,3.70
2023-03-26T04:50:18.638Z,4.63
2023-03-26T04:52:46.078Z,3.90
2023-03-26T04:55:27.916Z,4.70
2023-03-26T04:57:59.915Z,4.00
2023-03-26T05:00:28.445Z,3.33
2023-03-26T05:02:57.943Z,4.10
2023-03-26T05:05:26.900Z,4.30
2023-03-26T05:07:55.612Z,4.40
2023-03-26T05:10:23.105Z,3.87
2023-03-26T05:12:51.290Z,4.57
2023-03-26T05:15:18.404Z,4.73
2023-03-26T05:17:48.456Z,5.77
2023-03-26T05:20:26.377Z,4.60
2023-03-26T05:22:53.773Z,4.53
2023-03-26T05:25:20.761Z,4.70
2023-03-26T05:27:47.952Z,4.23
2023-03-26T05:30:17.300Z,4.20
2023-03-26T05:32:44.309Z,4.13
2023-03-26T05:35:12.684Z,4.17
2023-03-26T05:37:40.001Z,3.70
2023-03-26T05:40:16.788Z,3.83
2023-03-26T05:42:43.997Z,3.40
2023-03-26T05:45:14.126Z,3.77
2023-03-26T05:47:41.355Z,3.60
2023-03-26T05:50:09.188Z,3.30
2023-03-26T05:52:36.192Z,3.83
2023-03-26T05:55:03.897Z,3.70
2023-03-26T05:57:32.098Z,3.30
2023-03-26T05:59:58.942Z,3.03
2023-03-26T06:02:25.901Z,3.07
2023-03-26T06:04:52.986Z,3.17
2023-03-26T06:07:20.219Z,3.63
2023-03-26T06:09:47.270Z,3.37
2023-03-26T06:12:15.345Z,3.47
2023-03-26T06:14:42.990Z,3.70
2023-03-26T06:17:10.903Z,3.20
2023-03-26T06:19:38.088Z,3.90
2023-03-26T06:22:05.938Z,3.73
2023-03-26T06:24:33.632Z,3.40
2023-03-26T06:27:01.751Z,3.03
2023-03-26T06:29:28.814Z,3.37
2023-03-26T06:31:59.535Z,3.67
2023-03-26T06:34:30.812Z,3.67
2023-03-26T06:36:57.830Z,3.83
2023-03-26T06:39:24.627Z,3.70
2023-03-26T06:41:51.477Z,3.73
2023-03-26T06:44:18.319Z,3.83
2023-03-26T06:46:45.412Z,3.53
2023-03-26T06:49:12.417Z,3.60
2023-03-26T06:51:41.156Z,3.60
2023-03-26T06:54:08.254Z,3.73
2023-03-26T06:56:35.004Z,3.47
2023-03-26T06:59:01.849Z,4.23
2023-03-26T07:01:28.786Z,5.30
2023-03-26T07:03:56.104Z,3.33
2023-03-26T07:06:27.042Z,3.07
2023-03-26T07:08:55.458Z,3.27
2023-03-26T07:11:25.457Z,3.43
2023-03-26T07:13:52.806Z,3.27
2023-03-26T07:16:19.790Z,3.33
2023-03-26T07:18:46.747Z,3.33
2023-03-26T07:21:14.348Z,3.30
2023-03-26T07:23:41.458Z,3.63
2023-03-26T07:26:18.111Z,3.93
2023-03-26T07:29:04.403Z,3.67
2023-03-26T07:31:42.381Z,3.63
2023-03-26T07:34:44.294Z,3.33
2023-03-26T07:37:29.167Z,3.33
2023-03-26T07:40:02.730Z,3.97
2023-03-26T07:42:58.757Z,5.03
2023-03-26T07:45:41.723Z,3.83
2023-03-26T07:48:29.871Z,4.83
2023-03-26T07:50:57.504Z,3.90
2023-03-26T07:53:24.943Z,3.90
2023-03-26T07:56:12.846Z,3.53
2023-03-26T07:58:42.805Z,4.43
2023-03-26T08:01:22.223Z,3.43
2023-03-26T08:04:26.346Z,3.20
2023-03-26T08:07:23.181Z,3.40
2023-03-26T08:09:56.268Z,3.67
2023-03-26T08:12:54.338Z,3.50
2023-03-26T08:15:55.233Z,3.17
2023-03-26T08:18:55.548Z,3.37
2023-03-26T08:21:38.173Z,2.93
2023-03-26T08:24:43.816Z,3.07
2023-03-26T08:27:19.333Z,3.13
2023-03-26T08:30:07.605Z,2.80
2023-03-26T08:32:34.842Z,3.27
2023-03-26T08:35:04.991Z,4.20
2023-03-26T08:37:32.027Z,3.70
2023-03-26T08:39:58.955Z,3.77
2023-03-26T08:42:47.380Z,3.70
2023-03-26T08:45:42.907Z,3.03
2023-03-26T08:48:39.140Z,2.50
2023-03-26T08:51:42.228Z,2.83
2023-03-26T08:54:27.988Z,3.10
2023-03-26T08:57:23.633Z,2.70
2023-03-26T09:00:03.094Z,2.70
2023-03-26T09:03:07.410Z,3.47
2023-03-26T09:06:32.950Z,2.60
2023-03-26T09:09:28.067Z,2.73
2023-03-26T09:12:07.757Z,2.53
2023-03-26T09:14:51.306Z,2.43
2023-03-26T09:18:02.257Z,2.40
2023-03-26T09:21:06.542Z,1.97
2023-03-26T09:24:04.245Z,2.00
2023-03-26T09:26:59.568Z,2.10
2023-03-26T09:29:51.248Z,2.30
2023-03-26T09:32:39.414Z,2.00
2023-03-26T09:35:53.743Z,1.80
2023-03-26T09:38:42.517Z,2.00
2023-03-26T09:41:15.507Z,1.80
2023-03-26T09:44:04.872Z,1.97
2023-03-26T09:47:06.990Z,1.87
2023-03-26T09:49:41.769Z,2.43
2023-03-26T09:52:11.265Z,2.67
2023-03-26T09:54:44.654Z,2.37
2023-03-26T09:57:38.712Z,2.00
2023-03-26T10:00:39.009Z,2.10
2023-03-26T10:03:36.103Z,2.20
2023-03-26T10:06:06.890Z,1.93
2023-03-26T10:08:49.596Z,2.13
2023-03-26T10:11:25.456Z,1.93
2023-03-26T10:14:15.083Z,2.50
2023-03-26T10:16:47.946Z,1.80
2023-03-26T10:19:34.113Z,2.00
2023-03-26T10:22:06.799Z,1.77
2023-03-26T10:24:47.680Z,1.63
2023-03-26T10:27:25.738Z,1.63
2023-03-26T10:30:35.299Z,1.63
2023-03-26T10:33:14.219Z,1.37
2023-03-26T10:36:11.410Z,1.93
2023-03-26T10:39:11.752Z,1.40
2023-03-26T10:42:21.606Z,1.90
2023-03-26T10:45:15.817Z,1.80
2023-03-26T10:47:53.349Z,2.20
2023-03-26T10:50:29.054Z,1.80
2023-03-26T10:53:13.902Z,1.87
2023-03-26T10:55:46.678Z,1.70
2023-03-26T10:58:25.733Z,1.90
2023-03-26T11:01:12.347Z,2.13
2023-03-26T11:03:55.821Z,1.30
2023-03-26T11:06:25.737Z,1.47
2023-03-26T11:09:01.512Z,1.53
2023-03-26T11:11:41.988Z,2.30
2023-03-26T11:14:31.863Z,2.17
2023-03-26T11:17:40.917Z,2.07
2023-03-26T11:20:17.033Z,1.93
2023-03-26T11:22:49.855Z,1.90
2023-03-26T11:25:34.448Z,2.40
2023-03-26T11:28:05.148Z,1.50
2023-03-26T11:30:53.146Z,2.50
2023-03-26T11:33:27.478Z,2.50
2023-03-26T11:36:06.620Z,2.00
2023-03-26T11:38:44.950Z,2.00
2023-03-26T11:41:33.308Z,2.47
2023-03-26T11:44:28.286Z,1.83
2023-03-26T11:47:01.357Z,2.13
2023-03-26T11:49:29.503Z,2.10
2023-03-26T11:51:56.622Z,2.17
2023-03-26T11:54:23.519Z,2.30
2023-03-26T11:57:05.914Z,2.45
2023-03-26T11:59:49.050Z,1.73
2023-03-26T12:02:29.190Z,1.92
2023-03-26T12:05:27.412Z,2.00
2023-03-26T12:07:59.892Z,1.95
2023-03-26T12:10:33.226Z,2.63
2023-03-26T12:13:04.313Z,2.10
2023-03-26T12:15:32.616Z,1.90
2023-03-26T12:18:23.078Z,1.58
2023-03-26T12:21:01.606Z,2.00
2023-03-26T12:23:36.778Z,2.05
2023-03-26T12:26:36.092Z,1.45
2023-03-26T12:29:10.389Z,1.08
2023-03-26T12:32:13.245Z,1.20
2023-03-26T12:34:40.318Z,1.58
2023-03-26T12:37:28.171Z,1.40
2023-03-26T12:40:18.225Z,1.58
2023-03-26T12:44:55.339Z,1.70
2023-03-26T12:45:42.526Z,1.40
2023-03-26T12:48:15.550Z,1.80
2023-03-26T12:50:58.074Z,1.70
2023-03-26T12:53:45.483Z,1.50
2023-03-26T12:56:23.911Z,1.87
2023-03-26T12:58:55.068Z,1.70
2023-03-26T13:01:45.338Z,1.50
2023-03-26T13:04:18.358Z,1.53
2023-03-26T13:07:00.710Z,1.40
2023-03-26T13:09:54.144Z,1.57
2023-03-26T13:12:41.443Z,2.00
2023-03-26T13:15:14.234Z,2.30
2023-03-26T13:17:45.961Z,1.77
2023-03-26T13:20:13.194Z,1.80
2023-03-26T13:23:08.308Z,1.98
2023-03-26T13:26:01.878Z,1.90
2023-03-26T13:28:53.319Z,2.20
2023-03-26T13:31:33.983Z,1.58
2023-03-26T13:34:22.633Z,1.50
2023-03-26T13:37:05.956Z,1.27
2023-03-26T13:40:04.979Z,3.67
2023-03-26T13:42:55.998Z,1.00
2023-03-26T13:45:51.241Z,1.13
2023-03-26T13:48:23.476Z,1.05
2023-03-26T13:51:11.954Z,1.20
2023-03-26T13:54:03.277Z,1.25
2023-03-26T13:56:36.416Z,1.10
2023-03-26T13:59:12.693Z,1.38
2023-03-26T14:01:49.822Z,1.33
2023-03-26T14:04:53.746Z,1.60
2023-03-26T14:07:27.965Z,1.80
2023-03-26T14:10:06.828Z,2.30
2023-03-26T14:12:51.195Z,1.67
2023-03-26T14:15:26.622Z,1.48
2023-03-26T14:18:06.126Z,1.45
2023-03-26T14:20:52.508Z,1.27
2023-03-26T14:23:46.140Z,1.42
2023-03-26T14:26:34.064Z,1.30
2023-03-26T14:29:12.715Z,1.27
2023-03-26T14:31:57.768Z,1.27
2023-03-26T14:34:36.224Z,1.10
2023-03-26T14:37:28.038Z,1.30
2023-03-26T14:39:55.485Z,1.60
2023-03-26T14:42:58.134Z,1.50
2023-03-26T14:45:55.809Z,1.20
2023-03-26T14:48:48.116Z,1.30
2023-03-26T14:51:41.464Z,1.20
2023-03-26T14:54:13.590Z,1.70
2023-03-26T14:56:58.125Z,1.40
2023-03-26T15:00:06.871Z,1.42
2023-03-26T15:03:11.845Z,1.55
2023-03-26T15:05:41.653Z,1.90
2023-03-26T15:08:40.677Z,2.13
2023-03-26T15:11:32.520Z,22.65
2023-03-26T15:14:21.210Z,12.95
2023-03-26T15:17:12.792Z,5.68
2023-03-26T15:20:04.692Z,2.35
2023-03-26T15:23:02.818Z,1.80
2023-03-26T15:25:48.259Z,1.80
2023-03-26T15:28:57.456Z,2.35
2023-03-26T15:31:47.655Z,2.15
2023-03-26T15:34:39.147Z,1.40
2023-03-26T15:37:18.025Z,2.17
2023-03-26T15:40:09.252Z,1.83
2023-03-26T15:42:42.299Z,1.67
2023-03-26T15:45:45.372Z,2.22
2023-03-26T15:48:12.432Z,2.28
2023-03-26T15:50:56.713Z,1.83
2023-03-26T15:53:53.751Z,2.47
2023-03-26T15:56:34.174Z,2.10
2023-03-26T15:59:05.319Z,2.53
2023-03-26T16:02:04.589Z,1.80
2023-03-26T16:04:54.160Z,2.17
2023-03-26T16:07:47.184Z,2.10
2023-03-26T16:10:15.960Z,2.30
2023-03-26T16:13:01.784Z,2.17
2023-03-26T16:15:32.015Z,2.40
2023-03-26T16:18:19.426Z,2.50
2023-03-26T16:20:51.196Z,3.03
2023-03-26T16:23:47.887Z,2.63
2023-03-26T16:26:44.802Z,2.70
2023-03-26T16:29:14.641Z,2.50
2023-03-26T16:32:00.485Z,2.40
2023-03-26T16:34:36.939Z,2.93
2023-03-26T16:37:07.996Z,2.60
2023-03-26T16:39:41.687Z,3.40
2023-03-26T16:42:29.192Z,2.97
2023-03-26T16:45:06.453Z,3.00
2023-03-26T16:47:55.254Z,3.77
2023-03-26T16:50:37.410Z,3.23
2023-03-26T16:53:13.461Z,3.43
2023-03-26T16:55:41.129Z,2.93
2023-03-26T16:58:40.817Z,3.30
2023-03-26T17:01:08.482Z,3.80
2023-03-26T17:04:09.829Z,4.03
2023-03-26T17:07:03.370Z,4.53
2023-03-26T17:10:08.571Z,8.60
2023-03-26T17:12:46.497Z,14.07
2023-03-26T17:15:42.405Z,7.93
2023-03-26T17:18:53.868Z,6.87
2023-03-26T17:21:46.015Z,7.03
2023-03-26T17:24:29.459Z,6.37
2023-03-26T17:26:56.476Z,9.70
2023-03-26T17:29:35.460Z,10.60
2023-03-26T17:32:15.098Z,9.77
2023-03-26T17:34:50.958Z,10.20
2023-03-26T17:37:22.022Z,9.77
2023-03-26T17:39:57.620Z,11.67
2023-03-26T17:42:32.838Z,11.07
2023-03-26T17:45:07.358Z,11.10
2023-03-26T17:47:47.157Z,10.40
2023-03-26T17:50:19.677Z,9.80
2023-03-26T17:52:57.034Z,14.70
2023-03-26T17:55:33.120Z,27.40
2023-03-26T17:58:02.750Z,25.10
2023-03-26T18:00:40.441Z,17.17
2023-03-26T18:03:31.159Z,17.37
2023-03-26T18:06:10.998Z,17.90
2023-03-26T18:08:47.182Z,16.77
2023-03-26T18:11:20.350Z,17.20
2023-03-26T18:14:03.068Z,13.90
2023-03-26T18:16:42.257Z,12.80
2023-03-26T18:19:19.166Z,13.03
2023-03-26T18:21:50.243Z,15.47
2023-03-26T18:24:29.753Z,19.60
2023-03-26T18:27:01.607Z,26.37
2023-03-26T18:29:35.728Z,28.10
2023-03-26T18:32:09.102Z,35.33
2023-03-26T18:34:45.462Z,36.37
2023-03-26T18:37:23.334Z,25.07
2023-03-26T18:40:18.296Z,21.13
2023-03-26T18:42:57.679Z,17.70
2023-03-26T18:45:36.118Z,16.90
2023-03-26T18:48:13.904Z,15.67
2023-03-26T18:50:42.270Z,17.50
2023-03-26T18:53:25.277Z,18.03
2023-03-26T18:55:52.942Z,15.70
2023-03-26T18:58:23.146Z,16.30
2023-03-26T19:00:52.948Z,16.27
2023-03-26T19:03:22.444Z,17.00
2023-03-26T19:05:51.500Z,16.00
2023-03-26T19:08:19.323Z,17.30
2023-03-26T19:10:48.169Z,20.53
2023-03-26T19:13:15.484Z,17.47
2023-03-26T19:15:46.590Z,14.13
2023-03-26T19:18:19.105Z,14.63
2023-03-26T19:20:57.234Z,15.60
2023-03-26T19:23:32.302Z,17.10
2023-03-26T19:26:05.454Z,21.23
2023-03-26T19:28:35.735Z,22.03
2023-03-26T19:31:16.030Z,19.30
2023-03-26T19:33:44.389Z,19.03
2023-03-26T19:36:17.890Z,15.33
2023-03-26T19:38:51.957Z,13.73
2023-03-26T19:41:23.091Z,13.20
2023-03-26T19:43:59.997Z,12.60
2023-03-26T19:46:28.939Z,11.23
2023-03-26T19:48:58.036Z,12.97
2023-03-26T19:51:35.782Z,11.10
2023-03-26T19:54:19.790Z,11.27
2023-03-26T19:56:46.634Z,12.70
2023-03-26T19:59:15.217Z,13.53
2023-03-26T20:01:42.113Z,15.97
2023-03-26T20:04:11.685Z,15.67
2023-03-26T20:06:43.783Z,15.53
2023-03-26T20:09:13.303Z,14.37
2023-03-26T20:11:42.182Z,13.40
2023-03-26T20:14:25.693Z,11.70
2023-03-26T20:16:52.948Z,11.37
2023-03-26T20:19:20.762Z,12.43
2023-03-26T20:21:47.715Z,12.87
2023-03-26T20:24:17.609Z,11.90
2023-03-26T20:26:45.926Z,12.53
2023-03-26T20:29:13.771Z,12.17
2023-03-26T20:31:43.478Z,12.43
2023-03-26T20:34:17.564Z,13.50
2023-03-26T20:36:45.734Z,13.37
2023-03-26T20:39:13.298Z,15.73
2023-03-26T20:41:50.205Z,17.07
2023-03-26T20:44:19.488Z,17.00
2023-03-26T20:46:48.610Z,13.77
2023-03-26T20:49:15.614Z,13.40
2023-03-26T20:51:43.700Z,12.47
2023-03-26T20:54:31.036Z,11.83
2023-03-26T20:56:59.050Z,12.23
2023-03-26T20:59:27.712Z,11.27
2023-03-26T21:01:56.747Z,11.17
2023-03-26T21:04:26.204Z,11.57
2023-03-26T21:06:57.577Z,11.37
2023-03-26T21:09:35.439Z,11.63
2023-03-26T21:12:16.754Z,10.37
2023-03-26T21:14:44.326Z,10.10
2023-03-26T21:17:15.735Z,10.17
2023-03-26T21:19:43.673Z,10.00
2023-03-26T21:22:25.733Z,9.83
2023-03-26T21:25:01.752Z,11.20
2023-03-26T21:27:44.198Z,10.83
2023-03-26T21:30:16.825Z,11.07
2023-03-26T21:32:45.525Z,10.80
2023-03-26T21:35:14.952Z,10.90
2023-03-26T21:37:43.999Z,10.07
2023-03-26T21:40:17.108Z,10.53
2023-03-26T21:42:49.760Z,11.00
2023-03-26T21:45:18.177Z,10.80
2023-03-26T21:47:46.370Z,10.93
2023-03-26T21:50:19.035Z,11.73
2023-03-26T21:52:49.272Z,12.07
2023-03-26T21:55:26.320Z,12.20
2023-03-26T21:58:02.348Z,11.80
2023-03-26T22:00:56.905Z,12.47
2023-03-26T22:03:43.459Z,11.77
2023-03-26T22:06:24.921Z,11.43
2023-03-26T22:08:51.992Z,11.20
2023-03-26T22:11:18.792Z,11.77
2023-03-26T22:13:46.864Z,13.50
2023-03-26T22:16:13.737Z,12.37
2023-03-26T22:18:40.602Z,11.77
2023-03-26T22:21:07.853Z,12.77
2023-03-26T22:23:36.480Z,11.27
2023-03-26T22:26:04.931Z,11.20
2023-03-26T22:28:32.158Z,11.33
2023-03-26T22:30:59.656Z,10.77
2023-03-26T22:33:27.001Z,10.47
2023-03-26T22:35:56.100Z,9.60
2023-03-26T22:38:23.048Z,10.47
2023-03-26T22:40:57.499Z,10.00
2023-03-26T22:43:24.962Z,9.90
2023-03-26T22:45:53.696Z,9.87
2023-03-26T22:48:22.439Z,9.70
2023-03-26T22:51:05.158Z,9.73
2023-03-26T22:53:32.882Z,9.57
2023-03-26T22:56:00.374Z,9.93
2023-03-26T22:58:28.261Z,9.93
2023-03-26T23:01:02.680Z,10.27
2023-03-26T23:03:35.257Z,10.50
2023-03-26T23:06:06.216Z,10.23
2023-03-26T23:08:35.339Z,9.53
2023-03-26T23:11:02.247Z,10.20
2023-03-26T23:13:29.108Z,10.13
2023-03-26T23:15:57.267Z,10.70
2023-03-26T23:18:25.013Z,9.60
2023-03-26T23:20:56.836Z,11.30
2023-03-26T23:23:27.962Z,11.73
2023-03-26T23:26:02.987Z,10.33
2023-03-26T23:28:32.269Z,11.00
2023-03-26T23:31:02.265Z,10.90
2023-03-26T23:33:33.272Z,10.50
2023-03-26T23:36:00.686Z,11.13
2023-03-26T23:38:44.018Z,10.90
2023-03-26T23:41:15.468Z,10.20
2023-03-26T23:43:54.248Z,10.57
2023-03-26T23:46:30.370Z,12.03
2023-03-26T23:49:00.190Z,12.63
2023-03-26T23:51:27.562Z,13.33
2023-03-26T23:53:54.473Z,12.37
2023-03-26T23:56:21.434Z,11.57
2023-03-26T23:58:49.001Z,11.10
